Atwood, IN

5:22 AM EDT on July 27, 2016 (GMT -0400)
Etna | | Change Station

Elev 791 ft 41.25 °N, 86.01 °W | Updated 13 minutes ago

Scattered Clouds
Scattered Clouds
62.2 °F
Feels Like 62.2 °F
N
0.0
Wind Variable Wind from NE

Today
High -- | Low -- °F
--% Chance of Precip.
Yesterday
High -- | Low -- °F
Precip. -- in
Pressure 30.01 in
Visibility 2.0 miles
Clouds Scattered Clouds 200 ft
Dew Point 62 °F
Humidity 99%
Rainfall 0.00 in
Snow Depth Not available.
6:34 AM 9:05 PM
Last Quarter, 45% visible
METAR KASW 270915Z AUTO 00000KT 2SM BR SCT002 17/17 A3001 RMK AO2 VIS 1V4
Pressure 30.01 in
Visibility 2.0 miles
Clouds Scattered Clouds 200 ft
Dew Point 62 °F
Humidity 99%
Rainfall 0.00 in
Snow Depth Not available.
6:34 AM 9:05 PM
Last Quarter, 45% visible
METAR KASW 270915Z AUTO 00000KT 2SM BR SCT002 17/17 A3001 RMK AO2 VIS 1V4

10-Day Weather Forecast

Almanac

Astronomy

Jul. 27, 2016 Rise Set
Actual Time
Civil Twilight
Nautical Twilight
Astronomical Twilight
Moon
Length of Visible Light
Length of Day
Tomorrow will be .
, % of the Moon is Illuminated

Today's Extremes

State Highs State Lows

Community

WunderPhotos

Upload Photos

1,927,818 photos uploaded!

WunderBlog® & News

Nearby

Air Quality

  Air Quality AQ Index Pollutant
Not available.

Snow Depth

Station Depth Elevation

Earthquake Activity

City Distance Mag. Time & Date
Minimum magnitude displayed is 2.5.

Coastal Water Temperatures

Place Temperature

Stations

Nearby Weather Stations

Station Location Temp. Windchill Dew Point Humidity Wind Precip. Elev Updated Type
                   

Watches & Warnings

There are currently no watches in effect.